sensor_id;sensor_type;location;lat;lon;timestamp;pressure;altitude;pressure_sealevel;temperature
48628;BMP280;34424;52.234;6.500;2024-02-21T00:01:27;101999.8;;;7.92
48628;BMP280;34424;52.234;6.500;2024-02-21T00:06:24;101996.1;;;7.8
48628;BMP280;34424;52.234;6.500;2024-02-21T00:11:24;101980.5;;;7.85
48628;BMP280;34424;52.234;6.500;2024-02-21T00:16:25;101990.3;;;7.97
48628;BMP280;34424;52.234;6.500;2024-02-21T00:21:24;101985.7;;;8
48628;BMP280;34424;52.234;6.500;2024-02-21T00:26:23;101976.7;;;7.9
48628;BMP280;34424;52.234;6.500;2024-02-21T00:31:23;101979.1;;;7.85
48628;BMP280;34424;52.234;6.500;2024-02-21T00:36:24;101981.8;;;7.88
48628;BMP280;34424;52.234;6.500;2024-02-21T00:41:23;101973.4;;;7.82
48628;BMP280;34424;52.234;6.500;2024-02-21T00:46:23;101971.5;;;7.8
48628;BMP280;34424;52.234;6.500;2024-02-21T00:51:22;101963;;;7.95
48628;BMP280;34424;52.234;6.500;2024-02-21T00:56:22;101946.3;;;7.76
48628;BMP280;34424;52.234;6.500;2024-02-21T01:01:25;101942.8;;;7.8
48628;BMP280;34424;52.234;6.500;2024-02-21T01:06:22;101934.6;;;7.85
48628;BMP280;34424;52.234;6.500;2024-02-21T01:11:22;101926.9;;;7.82
48628;BMP280;34424;52.234;6.500;2024-02-21T01:16:21;101930.6;;;7.87
48628;BMP280;34424;52.234;6.500;2024-02-21T01:21:21;101932.2;;;7.91
48628;BMP280;34424;52.234;6.500;2024-02-21T01:26:21;101922.5;;;7.82
48628;BMP280;34424;52.234;6.500;2024-02-21T01:31:21;101911.6;;;7.83
48628;BMP280;34424;52.234;6.500;2024-02-21T01:36:20;101914.2;;;7.86
48628;BMP280;34424;52.234;6.500;2024-02-21T01:41:21;101898.8;;;7.77
48628;BMP280;34424;52.234;6.500;2024-02-21T01:46:20;101897.8;;;7.85
48628;BMP280;34424;52.234;6.500;2024-02-21T01:51:19;101889.5;;;7.83
48628;BMP280;34424;52.234;6.500;2024-02-21T01:56:20;101892.8;;;7.9
48628;BMP280;34424;52.234;6.500;2024-02-21T02:01:24;101890.8;;;7.92
48628;BMP280;34424;52.234;6.500;2024-02-21T02:06:19;101863.3;;;7.78
48628;BMP280;34424;52.234;6.500;2024-02-21T02:11:19;101851.9;;;7.73
48628;BMP280;34424;52.234;6.500;2024-02-21T02:16:19;101837.8;;;7.71
48628;BMP280;34424;52.234;6.500;2024-02-21T02:21:21;101835.5;;;7.76
48628;BMP280;34424;52.234;6.500;2024-02-21T02:26:18;101838.7;;;7.82
48628;BMP280;34424;52.234;6.500;2024-02-21T02:31:18;101836.3;;;7.86
48628;BMP280;34424;52.234;6.500;2024-02-21T02:36:18;101828.5;;;7.74
48628;BMP280;34424;52.234;6.500;2024-02-21T02:41:18;101826.8;;;7.78
48628;BMP280;34424;52.234;6.500;2024-02-21T02:46:18;101837.8;;;7.9
48628;BMP280;34424;52.234;6.500;2024-02-21T02:51:18;101835.1;;;7.79
48628;BMP280;34424;52.234;6.500;2024-02-21T02:56:22;101831.1;;;7.83
48628;BMP280;34424;52.234;6.500;2024-02-21T03:01:18;101828.9;;;7.81
48628;BMP280;34424;52.234;6.500;2024-02-21T03:06:18;101834.5;;;7.86
48628;BMP280;34424;52.234;6.500;2024-02-21T03:11:18;101839.9;;;7.89
48628;BMP280;34424;52.234;6.500;2024-02-21T03:16:20;101834.2;;;7.85
48628;BMP280;34424;52.234;6.500;2024-02-21T03:21:18;101823.9;;;7.96
48628;BMP280;34424;52.234;6.500;2024-02-21T03:26:18;101822.3;;;7.89
48628;BMP280;34424;52.234;6.500;2024-02-21T03:31:18;101808.8;;;7.91
48628;BMP280;34424;52.234;6.500;2024-02-21T03:36:18;101809;;;7.77
48628;BMP280;34424;52.234;6.500;2024-02-21T03:41:18;101821;;;7.87
48628;BMP280;34424;52.234;6.500;2024-02-21T03:46:18;101816.3;;;7.74
48628;BMP280;34424;52.234;6.500;2024-02-21T03:51:18;101811.8;;;7.77
48628;BMP280;34424;52.234;6.500;2024-02-21T03:56:18;101813.9;;;7.82
48628;BMP280;34424;52.234;6.500;2024-02-21T04:01:18;101810.5;;;7.78
48628;BMP280;34424;52.234;6.500;2024-02-21T04:06:18;101805.3;;;7.81
48628;BMP280;34424;52.234;6.500;2024-02-21T04:11:18;101800.8;;;7.76
48628;BMP280;34424;52.234;6.500;2024-02-21T04:16:18;101794.6;;;7.68
48628;BMP280;34424;52.234;6.500;2024-02-21T04:21:18;101786.1;;;7.73
48628;BMP280;34424;52.234;6.500;2024-02-21T04:26:18;101781.8;;;7.65
48628;BMP280;34424;52.234;6.500;2024-02-21T04:31:18;101771.7;;;7.64
48628;BMP280;34424;52.234;6.500;2024-02-21T04:36:18;101770.8;;;7.67
48628;BMP280;34424;52.234;6.500;2024-02-21T04:41:18;101767.9;;;7.67
48628;BMP280;34424;52.234;6.500;2024-02-21T04:46:18;101758.5;;;7.64
48628;BMP280;34424;52.234;6.500;2024-02-21T04:51:18;101761.3;;;7.63
48628;BMP280;34424;52.234;6.500;2024-02-21T04:56:18;101757.1;;;7.59
48628;BMP280;34424;52.234;6.500;2024-02-21T05:01:18;101745.8;;;7.67
48628;BMP280;34424;52.234;6.500;2024-02-21T05:06:18;101734.2;;;7.69
48628;BMP280;34424;52.234;6.500;2024-02-21T05:11:18;101719.7;;;7.58
48628;BMP280;34424;52.234;6.500;2024-02-21T05:16:18;101732;;;7.61
48628;BMP280;34424;52.234;6.500;2024-02-21T05:21:18;101734.1;;;7.61
48628;BMP280;34424;52.234;6.500;2024-02-21T05:26:23;101730;;;7.61
48628;BMP280;34424;52.234;6.500;2024-02-21T05:31:18;101724.7;;;7.63
48628;BMP280;34424;52.234;6.500;2024-02-21T05:36:18;101707.7;;;7.64
48628;BMP280;34424;52.234;6.500;2024-02-21T05:41:18;101707.3;;;7.58
48628;BMP280;34424;52.234;6.500;2024-02-21T05:46:18;101701.7;;;7.48
48628;BMP280;34424;52.234;6.500;2024-02-21T05:51:18;101694.1;;;7.49
48628;BMP280;34424;52.234;6.500;2024-02-21T05:56:18;101687.6;;;7.53
48628;BMP280;34424;52.234;6.500;2024-02-21T06:01:18;101678.1;;;7.6
48628;BMP280;34424;52.234;6.500;2024-02-21T06:06:18;101671.1;;;7.5
48628;BMP280;34424;52.234;6.500;2024-02-21T06:11:18;101660.6;;;7.47
48628;BMP280;34424;52.234;6.500;2024-02-21T06:16:18;101644.9;;;7.56
48628;BMP280;34424;52.234;6.500;2024-02-21T06:21:18;101641.7;;;7.56
48628;BMP280;34424;52.234;6.500;2024-02-21T06:26:18;101651.8;;;7.54
48628;BMP280;34424;52.234;6.500;2024-02-21T06:31:18;101650.7;;;7.52
48628;BMP280;34424;52.234;6.500;2024-02-21T06:36:18;101642.9;;;7.55
48628;BMP280;34424;52.234;6.500;2024-02-21T06:41:19;101646.6;;;7.53
48628;BMP280;34424;52.234;6.500;2024-02-21T06:46:26;101649.7;;;7.52
48628;BMP280;34424;52.234;6.500;2024-02-21T06:51:18;101654.3;;;7.54
48628;BMP280;34424;52.234;6.500;2024-02-21T06:56:18;101654.9;;;7.68
48628;BMP280;34424;52.234;6.500;2024-02-21T07:01:18;101656.5;;;7.56
48628;BMP280;34424;52.234;6.500;2024-02-21T07:06:18;101649.7;;;7.6
48628;BMP280;34424;52.234;6.500;2024-02-21T07:11:18;101648.1;;;7.64
48628;BMP280;34424;52.234;6.500;2024-02-21T07:16:18;101646.9;;;7.66
48628;BMP280;34424;52.234;6.500;2024-02-21T07:21:18;101642.9;;;7.7
48628;BMP280;34424;52.234;6.500;2024-02-21T07:26:18;101640.9;;;7.68
48628;BMP280;34424;52.234;6.500;2024-02-21T07:31:18;101639.6;;;7.75
48628;BMP280;34424;52.234;6.500;2024-02-21T07:36:28;101628;;;7.67
48628;BMP280;34424;52.234;6.500;2024-02-21T07:41:18;101621.8;;;7.64
48628;BMP280;34424;52.234;6.500;2024-02-21T07:46:18;101625.4;;;7.82
48628;BMP280;34424;52.234;6.500;2024-02-21T07:51:18;101616.3;;;7.84
48628;BMP280;34424;52.234;6.500;2024-02-21T07:56:18;101612.5;;;7.91
48628;BMP280;34424;52.234;6.500;2024-02-21T08:01:21;101605.5;;;7.9
48628;BMP280;34424;52.234;6.500;2024-02-21T08:06:18;101591.8;;;7.85
48628;BMP280;34424;52.234;6.500;2024-02-21T08:11:18;101586.7;;;7.89
48628;BMP280;34424;52.234;6.500;2024-02-21T08:16:18;101571.1;;;8.03
48628;BMP280;34424;52.234;6.500;2024-02-21T08:21:18;101562.3;;;8.02
48628;BMP280;34424;52.234;6.500;2024-02-21T08:26:18;101561;;;7.96
48628;BMP280;34424;52.234;6.500;2024-02-21T08:31:22;101554.1;;;8.07
48628;BMP280;34424;52.234;6.500;2024-02-21T08:36:20;101561.5;;;8.24
48628;BMP280;34424;52.234;6.500;2024-02-21T08:41:18;101560.2;;;8.46
48628;BMP280;34424;52.234;6.500;2024-02-21T08:46:18;101543.9;;;8.35
48628;BMP280;34424;52.234;6.500;2024-02-21T08:51:18;101529.1;;;8.66
48628;BMP280;34424;52.234;6.500;2024-02-21T08:56:18;101517.8;;;8.58
48628;BMP280;34424;52.234;6.500;2024-02-21T09:01:18;101516;;;8.63
48628;BMP280;34424;52.234;6.500;2024-02-21T09:06:18;101518.1;;;8.61
48628;BMP280;34424;52.234;6.500;2024-02-21T09:11:18;101515;;;8.64
48628;BMP280;34424;52.234;6.500;2024-02-21T09:16:18;101505.6;;;8.55
48628;BMP280;34424;52.234;6.500;2024-02-21T09:21:18;101506.5;;;8.73
48628;BMP280;34424;52.234;6.500;2024-02-21T09:26:18;101506.2;;;8.93
48628;BMP280;34424;52.234;6.500;2024-02-21T09:31:18;101522.7;;;8.65
48628;BMP280;34424;52.234;6.500;2024-02-21T09:36:18;101496.7;;;8.85
48628;BMP280;34424;52.234;6.500;2024-02-21T09:41:19;101490.4;;;8.81
48628;BMP280;34424;52.234;6.500;2024-02-21T09:46:19;101494.1;;;9.05
48628;BMP280;34424;52.234;6.500;2024-02-21T09:51:18;101481;;;9.04
48628;BMP280;34424;52.234;6.500;2024-02-21T09:56:18;101478.7;;;9.16
48628;BMP280;34424;52.234;6.500;2024-02-21T10:01:18;101466.6;;;9.27
48628;BMP280;34424;52.234;6.500;2024-02-21T10:06:18;101460.6;;;9.27
48628;BMP280;34424;52.234;6.500;2024-02-21T10:11:25;101451.5;;;9.32
48628;BMP280;34424;52.234;6.500;2024-02-21T10:16:18;101440.6;;;9.15
48628;BMP280;34424;52.234;6.500;2024-02-21T10:21:18;101431.1;;;9.19
48628;BMP280;34424;52.234;6.500;2024-02-21T10:26:19;101422.8;;;9.36
48628;BMP280;34424;52.234;6.500;2024-02-21T10:31:25;101407.7;;;9.22
48628;BMP280;34424;52.234;6.500;2024-02-21T10:36:18;101411.1;;;9.24
48628;BMP280;34424;52.234;6.500;2024-02-21T10:41:19;101400.6;;;9.28
48628;BMP280;34424;52.234;6.500;2024-02-21T10:46:19;101388.2;;;9.38
48628;BMP280;34424;52.234;6.500;2024-02-21T10:51:19;101366.1;;;9.49
48628;BMP280;34424;52.234;6.500;2024-02-21T10:56:26;101362;;;9.41
48628;BMP280;34424;52.234;6.500;2024-02-21T11:01:18;101351.8;;;9.67
48628;BMP280;34424;52.234;6.500;2024-02-21T11:06:18;101342.1;;;9.36
48628;BMP280;34424;52.234;6.500;2024-02-21T11:11:18;101330.9;;;8.85
48628;BMP280;34424;52.234;6.500;2024-02-21T11:16:25;101336.7;;;9.04
48628;BMP280;34424;52.234;6.500;2024-02-21T11:21:18;101325.9;;;8.85
48628;BMP280;34424;52.234;6.500;2024-02-21T11:26:21;101307.3;;;8.73
48628;BMP280;34424;52.234;6.500;2024-02-21T11:31:18;101296;;;8.47
48628;BMP280;34424;52.234;6.500;2024-02-21T11:36:26;101281.6;;;8.32
48628;BMP280;34424;52.234;6.500;2024-02-21T11:41:18;101265.6;;;8.48
48628;BMP280;34424;52.234;6.500;2024-02-21T11:46:18;101233.6;;;8.62
48628;BMP280;34424;52.234;6.500;2024-02-21T11:51:24;101207.6;;;8.69
48628;BMP280;34424;52.234;6.500;2024-02-21T11:56:18;101183.7;;;8.83
48628;BMP280;34424;52.234;6.500;2024-02-21T12:01:18;101197.4;;;9.09
48628;BMP280;34424;52.234;6.500;2024-02-21T12:06:19;101206.3;;;8.78
48628;BMP280;34424;52.234;6.500;2024-02-21T12:11:22;101186.3;;;8.71
48628;BMP280;34424;52.234;6.500;2024-02-21T12:16:19;101175.2;;;8.76
48628;BMP280;34424;52.234;6.500;2024-02-21T12:21:18;101180.5;;;8.64
48628;BMP280;34424;52.234;6.500;2024-02-21T12:26:18;101197.2;;;8.47
48628;BMP280;34424;52.234;6.500;2024-02-21T12:31:18;101177.8;;;8.47
48628;BMP280;34424;52.234;6.500;2024-02-21T12:36:18;101163.1;;;8.35
48628;BMP280;34424;52.234;6.500;2024-02-21T12:41:18;101154.4;;;8.4
48628;BMP280;34424;52.234;6.500;2024-02-21T12:46:18;101138.3;;;8.39
48628;BMP280;34424;52.234;6.500;2024-02-21T12:51:18;101107.4;;;8.62
48628;BMP280;34424;52.234;6.500;2024-02-21T12:56:18;101090.3;;;8.8
48628;BMP280;34424;52.234;6.500;2024-02-21T13:01:18;101052;;;9.01
48628;BMP280;34424;52.234;6.500;2024-02-21T13:06:18;101015;;;9.3
48628;BMP280;34424;52.234;6.500;2024-02-21T13:11:19;101009.8;;;9.31
48628;BMP280;34424;52.234;6.500;2024-02-21T13:16:18;100999.4;;;9.37
48628;BMP280;34424;52.234;6.500;2024-02-21T13:21:18;100972.6;;;9.58
48628;BMP280;34424;52.234;6.500;2024-02-21T13:26:18;100954.7;;;9.59
48628;BMP280;34424;52.234;6.500;2024-02-21T13:31:19;100931.8;;;9.46
48628;BMP280;34424;52.234;6.500;2024-02-21T13:36:18;100914.4;;;9.56
48628;BMP280;34424;52.234;6.500;2024-02-21T13:41:18;100921.8;;;9.47
48628;BMP280;34424;52.234;6.500;2024-02-21T13:46:19;100892.3;;;9.47
48628;BMP280;34424;52.234;6.500;2024-02-21T13:51:18;100885.7;;;9.41
48628;BMP280;34424;52.234;6.500;2024-02-21T13:56:19;100866.1;;;9.36
48628;BMP280;34424;52.234;6.500;2024-02-21T14:01:18;100850.4;;;9.64
48628;BMP280;34424;52.234;6.500;2024-02-21T14:06:19;100847.3;;;9.62
48628;BMP280;34424;52.234;6.500;2024-02-21T14:11:18;100830.8;;;9.63
48628;BMP280;34424;52.234;6.500;2024-02-21T14:16:19;100832;;;9.7
48628;BMP280;34424;52.234;6.500;2024-02-21T14:21:18;100821.9;;;9.77
48628;BMP280;34424;52.234;6.500;2024-02-21T14:26:19;100802.9;;;9.79
48628;BMP280;34424;52.234;6.500;2024-02-21T14:31:19;100795.5;;;9.72
48628;BMP280;34424;52.234;6.500;2024-02-21T14:36:19;100774.2;;;9.71
48628;BMP280;34424;52.234;6.500;2024-02-21T14:41:19;100758.7;;;9.74
48628;BMP280;34424;52.234;6.500;2024-02-21T14:46:19;100730.7;;;9.82
48628;BMP280;34424;52.234;6.500;2024-02-21T14:51:19;100706.8;;;9.65
48628;BMP280;34424;52.234;6.500;2024-02-21T14:56:19;100699.1;;;9.67
48628;BMP280;34424;52.234;6.500;2024-02-21T15:01:19;100695.5;;;9.7
48628;BMP280;34424;52.234;6.500;2024-02-21T15:06:19;100691.4;;;9.64
48628;BMP280;34424;52.234;6.500;2024-02-21T15:11:19;100677.8;;;9.57
48628;BMP280;34424;52.234;6.500;2024-02-21T15:16:19;100669.7;;;9.6
48628;BMP280;34424;52.234;6.500;2024-02-21T15:21:19;100671.1;;;9.64
48628;BMP280;34424;52.234;6.500;2024-02-21T15:26:19;100651.4;;;9.63
48628;BMP280;34424;52.234;6.500;2024-02-21T15:31:24;100650.8;;;9.6
48628;BMP280;34424;52.234;6.500;2024-02-21T15:36:19;100631.5;;;9.52
48628;BMP280;34424;52.234;6.500;2024-02-21T15:41:19;100610.3;;;9.51
48628;BMP280;34424;52.234;6.500;2024-02-21T15:46:19;100600;;;9.36
48628;BMP280;34424;52.234;6.500;2024-02-21T15:51:19;100592.9;;;9.13
48628;BMP280;34424;52.234;6.500;2024-02-21T15:56:19;100582.4;;;8.85
48628;BMP280;34424;52.234;6.500;2024-02-21T16:01:19;100569.2;;;8.6
48628;BMP280;34424;52.234;6.500;2024-02-21T16:06:19;100559.2;;;8.42
48628;BMP280;34424;52.234;6.500;2024-02-21T16:11:19;100551.6;;;8.25
48628;BMP280;34424;52.234;6.500;2024-02-21T16:16:19;100537.8;;;8.1
48628;BMP280;34424;52.234;6.500;2024-02-21T16:21:19;100529.2;;;7.98
48628;BMP280;34424;52.234;6.500;2024-02-21T16:26:19;100523.8;;;7.87
48628;BMP280;34424;52.234;6.500;2024-02-21T16:31:19;100507.7;;;7.83
48628;BMP280;34424;52.234;6.500;2024-02-21T16:36:25;100502.1;;;7.78
48628;BMP280;34424;52.234;6.500;2024-02-21T16:41:19;100493;;;7.72
48628;BMP280;34424;52.234;6.500;2024-02-21T16:46:19;100467.9;;;7.71
48628;BMP280;34424;52.234;6.500;2024-02-21T16:51:19;100455.6;;;7.68
48628;BMP280;34424;52.234;6.500;2024-02-21T16:56:19;100440.9;;;7.56
48628;BMP280;34424;52.234;6.500;2024-02-21T17:01:19;100409.9;;;7.55
48628;BMP280;34424;52.234;6.500;2024-02-21T17:06:19;100396.7;;;7.52
48628;BMP280;34424;52.234;6.500;2024-02-21T17:11:19;100387.5;;;7.46
48628;BMP280;34424;52.234;6.500;2024-02-21T17:16:19;100373.8;;;7.43
48628;BMP280;34424;52.234;6.500;2024-02-21T17:21:19;100365.5;;;7.41
48628;BMP280;34424;52.234;6.500;2024-02-21T17:26:19;100356.3;;;7.37
48628;BMP280;34424;52.234;6.500;2024-02-21T17:31:19;100355.1;;;7.38
48628;BMP280;34424;52.234;6.500;2024-02-21T17:36:19;100355.4;;;7.33
48628;BMP280;34424;52.234;6.500;2024-02-21T17:41:19;100355.9;;;7.25
48628;BMP280;34424;52.234;6.500;2024-02-21T17:46:19;100350.7;;;7.19
48628;BMP280;34424;52.234;6.500;2024-02-21T17:51:19;100333.3;;;7.11
48628;BMP280;34424;52.234;6.500;2024-02-21T17:56:19;100345.9;;;7.13
48628;BMP280;34424;52.234;6.500;2024-02-21T18:01:19;100342.2;;;7.09
48628;BMP280;34424;52.234;6.500;2024-02-21T18:06:19;100329.3;;;7.06
48628;BMP280;34424;52.234;6.500;2024-02-21T18:11:19;100322.9;;;7.02
48628;BMP280;34424;52.234;6.500;2024-02-21T18:16:19;100305.8;;;7.08
48628;BMP280;34424;52.234;6.500;2024-02-21T18:21:19;100301.1;;;7.03
48628;BMP280;34424;52.234;6.500;2024-02-21T18:26:19;100285.6;;;7
48628;BMP280;34424;52.234;6.500;2024-02-21T18:31:19;100276.8;;;7.04
48628;BMP280;34424;52.234;6.500;2024-02-21T18:36:19;100278.8;;;6.96
48628;BMP280;34424;52.234;6.500;2024-02-21T18:41:19;100257.4;;;6.98
48628;BMP280;34424;52.234;6.500;2024-02-21T18:46:19;100247.6;;;6.89
48628;BMP280;34424;52.234;6.500;2024-02-21T18:51:19;100239.5;;;6.88
48628;BMP280;34424;52.234;6.500;2024-02-21T18:56:19;100232;;;6.89
48628;BMP280;34424;52.234;6.500;2024-02-21T19:01:19;100208.7;;;6.82
48628;BMP280;34424;52.234;6.500;2024-02-21T19:06:19;100197.2;;;6.78
48628;BMP280;34424;52.234;6.500;2024-02-21T19:11:19;100194.7;;;6.81
48628;BMP280;34424;52.234;6.500;2024-02-21T19:16:19;100189.6;;;6.81
48628;BMP280;34424;52.234;6.500;2024-02-21T19:21:19;100165.3;;;6.71
48628;BMP280;34424;52.234;6.500;2024-02-21T19:26:19;100153.5;;;6.75
48628;BMP280;34424;52.234;6.500;2024-02-21T19:31:19;100144;;;6.75
48628;BMP280;34424;52.234;6.500;2024-02-21T19:36:19;100140.9;;;6.79
48628;BMP280;34424;52.234;6.500;2024-02-21T19:41:19;100120.8;;;6.8
48628;BMP280;34424;52.234;6.500;2024-02-21T19:46:19;100118.3;;;6.81
48628;BMP280;34424;52.234;6.500;2024-02-21T19:51:19;100117.9;;;6.82
48628;BMP280;34424;52.234;6.500;2024-02-21T19:56:19;100099.9;;;6.83
48628;BMP280;34424;52.234;6.500;2024-02-21T20:01:19;100077.7;;;6.83
48628;BMP280;34424;52.234;6.500;2024-02-21T20:06:19;100071.8;;;6.91
48628;BMP280;34424;52.234;6.500;2024-02-21T20:11:19;100056;;;6.91
48628;BMP280;34424;52.234;6.500;2024-02-21T20:16:19;100040;;;6.91
48628;BMP280;34424;52.234;6.500;2024-02-21T20:21:19;100032.4;;;6.95
48628;BMP280;34424;52.234;6.500;2024-02-21T20:26:19;100022.1;;;6.94
48628;BMP280;34424;52.234;6.500;2024-02-21T20:31:19;100013.8;;;6.94
48628;BMP280;34424;52.234;6.500;2024-02-21T20:36:19;100014.3;;;6.98
48628;BMP280;34424;52.234;6.500;2024-02-21T20:39:20;100004.8;;;6.978242
48628;BMP280;34424;52.234;6.500;2024-02-21T20:44:20;99998.31;;;6.993867
48628;BMP280;34424;52.234;6.500;2024-02-21T20:49:20;99993.75;;;6.999141
48628;BMP280;34424;52.234;6.500;2024-02-21T20:54:20;99987.94;;;6.993867
48628;BMP280;34424;52.234;6.500;2024-02-21T20:59:20;99976.7;;;7.00168
48628;BMP280;34424;52.234;6.500;2024-02-21T21:04:20;99962.2;;;7.00168
48628;BMP280;34424;52.234;6.500;2024-02-21T21:09:20;99965.03;;;7.022578
48628;BMP280;34424;52.234;6.500;2024-02-21T21:14:20;99941.95;;;7.022578
48628;BMP280;34424;52.234;6.500;2024-02-21T21:19:20;99927.5;;;7.043672
48628;BMP280;34424;52.234;6.500;2024-02-21T21:24:20;99917.58;;;7.059297
48628;BMP280;34424;52.234;6.500;2024-02-21T21:29:20;99913.55;;;7.077656
48628;BMP280;34424;52.234;6.500;2024-02-21T21:34:20;99908.52;;;7.088008
48628;BMP280;34424;52.234;6.500;2024-02-21T21:39:20;99903.23;;;7.189961
48628;BMP280;34424;52.234;6.500;2024-02-21T21:44:20;99898.7;;;7.187422
48628;BMP280;34424;52.234;6.500;2024-02-21T21:49:20;99887.65;;;7.158711
48628;BMP280;34424;52.234;6.500;2024-02-21T21:54:20;99889.13;;;7.289375
48628;BMP280;34424;52.234;6.500;2024-02-21T21:59:20;99879.3;;;7.299727
48628;BMP280;34424;52.234;6.500;2024-02-21T22:04:20;99870.27;;;7.284102
48628;BMP280;34424;52.234;6.500;2024-02-21T22:09:20;99861.38;;;7.32082
48628;BMP280;34424;52.234;6.500;2024-02-21T22:14:20;99850.15;;;7.328633
48628;BMP280;34424;52.234;6.500;2024-02-21T22:19:20;99844.11;;;7.354805
48628;BMP280;34424;52.234;6.500;2024-02-21T22:24:20;99831.63;;;7.4175
48628;BMP280;34424;52.234;6.500;2024-02-21T22:29:20;99821.66;;;7.420039
48628;BMP280;34424;52.234;6.500;2024-02-21T22:34:20;99820.57;;;7.446211
48628;BMP280;34424;52.234;6.500;2024-02-21T22:39:20;99808.38;;;7.4175
48628;BMP280;34424;52.234;6.500;2024-02-21T22:44:20;99810.41;;;7.472383
48628;BMP280;34424;52.234;6.500;2024-02-21T22:49:20;99790.53;;;7.404414
48628;BMP280;34424;52.234;6.500;2024-02-21T22:54:20;99793.3;;;7.440938
48628;BMP280;34424;52.234;6.500;2024-02-21T22:59:20;99780.56;;;7.558711
48628;BMP280;34424;52.234;6.500;2024-02-21T23:04:20;99770.83;;;7.558711
48628;BMP280;34424;52.234;6.500;2024-02-21T23:09:20;99756.21;;;7.548164
48628;BMP280;34424;52.234;6.500;2024-02-21T23:14:20;99754.19;;;7.550899
48628;BMP280;34424;52.234;6.500;2024-02-21T23:19:20;99760.36;;;7.589961
48628;BMP280;34424;52.234;6.500;2024-02-21T23:24:20;99757.67;;;7.691914
48628;BMP280;34424;52.234;6.500;2024-02-21T23:29:20;99760.34;;;7.705
48628;BMP280;34424;52.234;6.500;2024-02-21T23:34:20;99753.07;;;7.72082
48628;BMP280;34424;52.234;6.500;2024-02-21T23:39:20;99746.39;;;7.75207
48628;BMP280;34424;52.234;6.500;2024-02-21T23:44:20;99741.54;;;7.762617
48628;BMP280;34424;52.234;6.500;2024-02-21T23:49:20;99734.23;;;7.778242
48628;BMP280;34424;52.234;6.500;2024-02-21T23:54:20;99727.91;;;7.859297
48628;BMP280;34424;52.234;6.500;2024-02-21T23:59:20;99720.82;;;7.830586
